sensor_id;sensor_type;location;lat;lon;timestamp;P1;durP1;ratioP1;P2;durP2;ratioP2
15982;SDS011;14442;50.196;8.096;2022-12-11T00:00:43;4.00;;;3.57;;
15982;SDS011;14442;50.196;8.096;2022-12-11T00:03:10;3.40;;;3.20;;
15982;SDS011;14442;50.196;8.096;2022-12-11T00:05:37;4.07;;;3.77;;
15982;SDS011;14442;50.196;8.096;2022-12-11T00:08:05;3.77;;;3.20;;
15982;SDS011;14442;50.196;8.096;2022-12-11T00:10:32;3.20;;;3.00;;
15982;SDS011;14442;50.196;8.096;2022-12-11T00:12:59;3.60;;;3.40;;
15982;SDS011;14442;50.196;8.096;2022-12-11T00:15:27;4.23;;;3.93;;
15982;SDS011;14442;50.196;8.096;2022-12-11T00:17:54;3.63;;;3.43;;
15982;SDS011;14442;50.196;8.096;2022-12-11T00:20:21;3.40;;;3.20;;
15982;SDS011;14442;50.196;8.096;2022-12-11T00:22:48;3.93;;;3.63;;
15982;SDS011;14442;50.196;8.096;2022-12-11T00:25:14;4.07;;;3.77;;
15982;SDS011;14442;50.196;8.096;2022-12-11T00:27:41;4.30;;;3.90;;
15982;SDS011;14442;50.196;8.096;2022-12-11T00:30:10;4.10;;;3.80;;
15982;SDS011;14442;50.196;8.096;2022-12-11T00:32:38;4.07;;;3.63;;
15982;SDS011;14442;50.196;8.096;2022-12-11T00:35:06;4.33;;;4.03;;
15982;SDS011;14442;50.196;8.096;2022-12-11T00:37:33;3.97;;;3.67;;
15982;SDS011;14442;50.196;8.096;2022-12-11T00:40:00;3.93;;;3.63;;
15982;SDS011;14442;50.196;8.096;2022-12-11T00:42:27;3.70;;;3.50;;
15982;SDS011;14442;50.196;8.096;2022-12-11T00:44:54;4.20;;;3.80;;
15982;SDS011;14442;50.196;8.096;2022-12-11T00:47:21;4.00;;;3.70;;
15982;SDS011;14442;50.196;8.096;2022-12-11T00:49:48;4.13;;;3.83;;
15982;SDS011;14442;50.196;8.096;2022-12-11T00:52:15;3.90;;;3.70;;
15982;SDS011;14442;50.196;8.096;2022-12-11T00:54:42;4.07;;;3.77;;
15982;SDS011;14442;50.196;8.096;2022-12-11T00:57:09;3.67;;;3.47;;
15982;SDS011;14442;50.196;8.096;2022-12-11T00:59:35;3.87;;;3.67;;
15982;SDS011;14442;50.196;8.096;2022-12-11T01:02:02;4.20;;;3.90;;
15982;SDS011;14442;50.196;8.096;2022-12-11T01:04:29;4.00;;;3.53;;
15982;SDS011;14442;50.196;8.096;2022-12-11T01:06:57;4.03;;;3.73;;
15982;SDS011;14442;50.196;8.096;2022-12-11T01:09:23;3.97;;;3.73;;
15982;SDS011;14442;50.196;8.096;2022-12-11T01:12:07;3.93;;;3.63;;
15982;SDS011;14442;50.196;8.096;2022-12-11T01:14:34;3.90;;;3.60;;
15982;SDS011;14442;50.196;8.096;2022-12-11T01:17:01;3.93;;;3.50;;
15982;SDS011;14442;50.196;8.096;2022-12-11T01:19:27;4.60;;;3.70;;
15982;SDS011;14442;50.196;8.096;2022-12-11T01:21:54;4.00;;;3.80;;
15982;SDS011;14442;50.196;8.096;2022-12-11T01:24:22;4.20;;;3.90;;
15982;SDS011;14442;50.196;8.096;2022-12-11T01:26:49;4.60;;;4.27;;
15982;SDS011;14442;50.196;8.096;2022-12-11T01:29:15;4.47;;;4.10;;
15982;SDS011;14442;50.196;8.096;2022-12-11T01:31:42;4.30;;;4.00;;
15982;SDS011;14442;50.196;8.096;2022-12-11T01:34:09;3.67;;;3.37;;
15982;SDS011;14442;50.196;8.096;2022-12-11T01:36:35;3.83;;;3.53;;
15982;SDS011;14442;50.196;8.096;2022-12-11T01:39:02;4.33;;;3.93;;
15982;SDS011;14442;50.196;8.096;2022-12-11T01:41:30;4.17;;;3.97;;
15982;SDS011;14442;50.196;8.096;2022-12-11T01:44:01;3.83;;;3.57;;
15982;SDS011;14442;50.196;8.096;2022-12-11T01:46:30;4.17;;;3.97;;
15982;SDS011;14442;50.196;8.096;2022-12-11T01:48:58;3.93;;;3.73;;
15982;SDS011;14442;50.196;8.096;2022-12-11T01:51:26;3.90;;;3.60;;
15982;SDS011;14442;50.196;8.096;2022-12-11T01:53:57;3.80;;;3.60;;
15982;SDS011;14442;50.196;8.096;2022-12-11T01:56:26;3.90;;;3.70;;
15982;SDS011;14442;50.196;8.096;2022-12-11T01:58:59;4.00;;;3.70;;
15982;SDS011;14442;50.196;8.096;2022-12-11T02:01:31;4.17;;;3.87;;
15982;SDS011;14442;50.196;8.096;2022-12-11T02:04:01;3.90;;;3.70;;
15982;SDS011;14442;50.196;8.096;2022-12-11T02:06:30;3.80;;;3.50;;
15982;SDS011;14442;50.196;8.096;2022-12-11T02:08:59;4.00;;;3.70;;
15982;SDS011;14442;50.196;8.096;2022-12-11T02:11:27;4.00;;;3.70;;
15982;SDS011;14442;50.196;8.096;2022-12-11T02:14:04;3.90;;;3.60;;
15982;SDS011;14442;50.196;8.096;2022-12-11T02:16:39;3.90;;;3.60;;
15982;SDS011;14442;50.196;8.096;2022-12-11T02:19:15;3.60;;;3.40;;
15982;SDS011;14442;50.196;8.096;2022-12-11T02:21:55;3.97;;;3.67;;
15982;SDS011;14442;50.196;8.096;2022-12-11T02:24:25;4.20;;;3.90;;
15982;SDS011;14442;50.196;8.096;2022-12-11T02:27:13;4.13;;;3.83;;
15982;SDS011;14442;50.196;8.096;2022-12-11T02:29:50;4.20;;;3.90;;
15982;SDS011;14442;50.196;8.096;2022-12-11T02:32:22;4.03;;;3.60;;
15982;SDS011;14442;50.196;8.096;2022-12-11T02:34:54;3.80;;;3.60;;
15982;SDS011;14442;50.196;8.096;2022-12-11T02:37:25;3.83;;;3.63;;
15982;SDS011;14442;50.196;8.096;2022-12-11T02:39:55;3.90;;;3.60;;
15982;SDS011;14442;50.196;8.096;2022-12-11T02:42:23;4.00;;;3.70;;
15982;SDS011;14442;50.196;8.096;2022-12-11T02:44:56;3.97;;;3.67;;
15982;SDS011;14442;50.196;8.096;2022-12-11T02:47:25;3.63;;;3.43;;
15982;SDS011;14442;50.196;8.096;2022-12-11T02:49:54;4.13;;;3.83;;
15982;SDS011;14442;50.196;8.096;2022-12-11T02:52:22;3.80;;;3.60;;
15982;SDS011;14442;50.196;8.096;2022-12-11T02:54:52;3.90;;;3.60;;
15982;SDS011;14442;50.196;8.096;2022-12-11T02:57:22;3.67;;;3.47;;
15982;SDS011;14442;50.196;8.096;2022-12-11T02:59:55;3.83;;;3.63;;
15982;SDS011;14442;50.196;8.096;2022-12-11T03:02:22;3.67;;;3.47;;
15982;SDS011;14442;50.196;8.096;2022-12-11T03:04:48;4.07;;;3.77;;
15982;SDS011;14442;50.196;8.096;2022-12-11T03:07:16;3.87;;;3.60;;
15982;SDS011;14442;50.196;8.096;2022-12-11T03:09:47;3.83;;;3.53;;
15982;SDS011;14442;50.196;8.096;2022-12-11T03:12:16;4.07;;;3.77;;
15982;SDS011;14442;50.196;8.096;2022-12-11T03:14:45;3.87;;;3.67;;
15982;SDS011;14442;50.196;8.096;2022-12-11T03:17:14;3.97;;;3.67;;
15982;SDS011;14442;50.196;8.096;2022-12-11T03:19:46;3.50;;;3.30;;
15982;SDS011;14442;50.196;8.096;2022-12-11T03:22:15;4.50;;;4.20;;
15982;SDS011;14442;50.196;8.096;2022-12-11T03:24:46;3.60;;;3.40;;
15982;SDS011;14442;50.196;8.096;2022-12-11T03:27:16;3.93;;;3.63;;
15982;SDS011;14442;50.196;8.096;2022-12-11T03:29:50;3.67;;;3.37;;
15982;SDS011;14442;50.196;8.096;2022-12-11T03:32:24;3.77;;;3.53;;
15982;SDS011;14442;50.196;8.096;2022-12-11T03:34:54;4.10;;;3.80;;
15982;SDS011;14442;50.196;8.096;2022-12-11T03:37:26;3.60;;;3.40;;
15982;SDS011;14442;50.196;8.096;2022-12-11T03:39:58;3.70;;;3.50;;
15982;SDS011;14442;50.196;8.096;2022-12-11T03:42:30;3.57;;;3.37;;
15982;SDS011;14442;50.196;8.096;2022-12-11T03:44:59;3.30;;;3.10;;
15982;SDS011;14442;50.196;8.096;2022-12-11T03:47:30;3.67;;;3.47;;
15982;SDS011;14442;50.196;8.096;2022-12-11T03:49:58;3.57;;;3.37;;
15982;SDS011;14442;50.196;8.096;2022-12-11T03:52:27;4.10;;;3.83;;
15982;SDS011;14442;50.196;8.096;2022-12-11T03:54:55;3.50;;;3.30;;
15982;SDS011;14442;50.196;8.096;2022-12-11T03:57:28;3.97;;;3.67;;
15982;SDS011;14442;50.196;8.096;2022-12-11T03:59:56;3.67;;;3.47;;
15982;SDS011;14442;50.196;8.096;2022-12-11T04:02:23;4.07;;;3.77;;
15982;SDS011;14442;50.196;8.096;2022-12-11T04:04:51;3.63;;;3.43;;
15982;SDS011;14442;50.196;8.096;2022-12-11T05:19:36;4.03;;;3.73;;
15982;SDS011;14442;50.196;8.096;2022-12-11T05:22:03;3.87;;;3.57;;
15982;SDS011;14442;50.196;8.096;2022-12-11T05:24:30;3.97;;;3.67;;
15982;SDS011;14442;50.196;8.096;2022-12-11T05:26:57;4.50;;;4.20;;
15982;SDS011;14442;50.196;8.096;2022-12-11T05:29:23;4.27;;;3.87;;
15982;SDS011;14442;50.196;8.096;2022-12-11T05:31:50;4.23;;;3.93;;
15982;SDS011;14442;50.196;8.096;2022-12-11T05:34:17;3.70;;;3.50;;
15982;SDS011;14442;50.196;8.096;2022-12-11T05:36:44;4.03;;;3.73;;
15982;SDS011;14442;50.196;8.096;2022-12-11T05:39:11;3.50;;;3.30;;
15982;SDS011;14442;50.196;8.096;2022-12-11T05:41:38;4.00;;;3.70;;
15982;SDS011;14442;50.196;8.096;2022-12-11T05:44:05;4.00;;;3.60;;
15982;SDS011;14442;50.196;8.096;2022-12-11T05:46:31;4.33;;;4.03;;
15982;SDS011;14442;50.196;8.096;2022-12-11T05:48:58;3.77;;;3.43;;
15982;SDS011;14442;50.196;8.096;2022-12-11T05:51:26;3.80;;;3.60;;
15982;SDS011;14442;50.196;8.096;2022-12-11T05:53:56;4.00;;;3.70;;
15982;SDS011;14442;50.196;8.096;2022-12-11T05:56:24;4.07;;;3.87;;
15982;SDS011;14442;50.196;8.096;2022-12-11T05:58:53;3.70;;;3.50;;
15982;SDS011;14442;50.196;8.096;2022-12-11T06:01:22;3.33;;;3.13;;
15982;SDS011;14442;50.196;8.096;2022-12-11T06:03:50;4.10;;;3.80;;
15982;SDS011;14442;50.196;8.096;2022-12-11T06:06:18;3.93;;;3.70;;
15982;SDS011;14442;50.196;8.096;2022-12-11T06:08:45;3.87;;;3.67;;
15982;SDS011;14442;50.196;8.096;2022-12-11T06:11:15;3.93;;;3.63;;
15982;SDS011;14442;50.196;8.096;2022-12-11T06:13:42;3.97;;;3.57;;
15982;SDS011;14442;50.196;8.096;2022-12-11T06:16:09;3.97;;;3.67;;
15982;SDS011;14442;50.196;8.096;2022-12-11T06:18:36;3.27;;;3.07;;
15982;SDS011;14442;50.196;8.096;2022-12-11T06:21:11;3.80;;;3.50;;
15982;SDS011;14442;50.196;8.096;2022-12-11T06:23:38;3.63;;;3.43;;
15982;SDS011;14442;50.196;8.096;2022-12-11T06:26:05;4.03;;;3.73;;
15982;SDS011;14442;50.196;8.096;2022-12-11T06:28:33;4.40;;;4.03;;
15982;SDS011;14442;50.196;8.096;2022-12-11T06:31:00;4.10;;;3.77;;
15982;SDS011;14442;50.196;8.096;2022-12-11T06:33:27;3.20;;;3.00;;
15982;SDS011;14442;50.196;8.096;2022-12-11T06:35:54;3.53;;;3.23;;
15982;SDS011;14442;50.196;8.096;2022-12-11T06:38:22;3.50;;;3.30;;
15982;SDS011;14442;50.196;8.096;2022-12-11T06:40:53;3.70;;;3.40;;
15982;SDS011;14442;50.196;8.096;2022-12-11T06:43:20;3.33;;;3.13;;
15982;SDS011;14442;50.196;8.096;2022-12-11T06:45:48;3.93;;;3.63;;
15982;SDS011;14442;50.196;8.096;2022-12-11T06:48:15;3.93;;;3.67;;
15982;SDS011;14442;50.196;8.096;2022-12-11T06:50:42;4.10;;;3.80;;
15982;SDS011;14442;50.196;8.096;2022-12-11T06:53:08;3.77;;;3.57;;
15982;SDS011;14442;50.196;8.096;2022-12-11T06:55:36;3.93;;;3.70;;
15982;SDS011;14442;50.196;8.096;2022-12-11T06:58:03;3.97;;;3.77;;
15982;SDS011;14442;50.196;8.096;2022-12-11T07:00:30;4.17;;;3.80;;
15982;SDS011;14442;50.196;8.096;2022-12-11T07:02:58;3.97;;;3.77;;
15982;SDS011;14442;50.196;8.096;2022-12-11T07:05:25;3.70;;;3.40;;
15982;SDS011;14442;50.196;8.096;2022-12-11T07:07:51;4.23;;;3.93;;
15982;SDS011;14442;50.196;8.096;2022-12-11T07:10:18;3.33;;;3.07;;
15982;SDS011;14442;50.196;8.096;2022-12-11T07:12:45;3.87;;;3.57;;
15982;SDS011;14442;50.196;8.096;2022-12-11T07:15:12;4.43;;;4.13;;
15982;SDS011;14442;50.196;8.096;2022-12-11T07:17:39;4.40;;;4.10;;
15982;SDS011;14442;50.196;8.096;2022-12-11T07:20:07;3.30;;;3.10;;
15982;SDS011;14442;50.196;8.096;2022-12-11T07:22:35;4.10;;;3.80;;
15982;SDS011;14442;50.196;8.096;2022-12-11T07:25:01;2.90;;;2.80;;
15982;SDS011;14442;50.196;8.096;2022-12-11T07:27:28;3.90;;;3.60;;
15982;SDS011;14442;50.196;8.096;2022-12-11T07:29:55;3.80;;;3.60;;
15982;SDS011;14442;50.196;8.096;2022-12-11T07:32:22;3.80;;;3.60;;
15982;SDS011;14442;50.196;8.096;2022-12-11T07:34:48;3.63;;;3.40;;
15982;SDS011;14442;50.196;8.096;2022-12-11T07:37:16;3.97;;;3.77;;
15982;SDS011;14442;50.196;8.096;2022-12-11T07:39:43;3.57;;;3.27;;
15982;SDS011;14442;50.196;8.096;2022-12-11T07:42:10;3.40;;;3.20;;
15982;SDS011;14442;50.196;8.096;2022-12-11T07:44:36;3.63;;;3.33;;
15982;SDS011;14442;50.196;8.096;2022-12-11T07:47:03;3.57;;;3.37;;
15982;SDS011;14442;50.196;8.096;2022-12-11T07:49:30;3.73;;;3.43;;
15982;SDS011;14442;50.196;8.096;2022-12-11T07:51:56;4.13;;;3.83;;
15982;SDS011;14442;50.196;8.096;2022-12-11T07:54:24;3.60;;;3.40;;
15982;SDS011;14442;50.196;8.096;2022-12-11T07:56:51;3.20;;;3.00;;
15982;SDS011;14442;50.196;8.096;2022-12-11T07:59:18;3.40;;;3.20;;
15982;SDS011;14442;50.196;8.096;2022-12-11T08:01:45;3.60;;;3.40;;
15982;SDS011;14442;50.196;8.096;2022-12-11T08:04:11;3.50;;;3.30;;
15982;SDS011;14442;50.196;8.096;2022-12-11T08:06:39;3.13;;;2.93;;
15982;SDS011;14442;50.196;8.096;2022-12-11T08:09:08;3.43;;;3.23;;
15982;SDS011;14442;50.196;8.096;2022-12-11T08:11:37;3.63;;;3.43;;
15982;SDS011;14442;50.196;8.096;2022-12-11T08:14:04;3.53;;;3.33;;
15982;SDS011;14442;50.196;8.096;2022-12-11T08:16:32;3.43;;;3.20;;
15982;SDS011;14442;50.196;8.096;2022-12-11T08:18:59;3.03;;;2.83;;
15982;SDS011;14442;50.196;8.096;2022-12-11T08:21:26;3.83;;;3.53;;
15982;SDS011;14442;50.196;8.096;2022-12-11T08:23:53;3.57;;;3.37;;
15982;SDS011;14442;50.196;8.096;2022-12-11T08:26:21;3.53;;;3.33;;
15982;SDS011;14442;50.196;8.096;2022-12-11T08:28:50;3.47;;;3.27;;
15982;SDS011;14442;50.196;8.096;2022-12-11T08:31:17;3.00;;;2.80;;
15982;SDS011;14442;50.196;8.096;2022-12-11T08:33:44;3.60;;;3.40;;
15982;SDS011;14442;50.196;8.096;2022-12-11T08:36:12;3.20;;;3.00;;
15982;SDS011;14442;50.196;8.096;2022-12-11T08:38:40;3.00;;;2.87;;
15982;SDS011;14442;50.196;8.096;2022-12-11T08:41:08;3.60;;;3.40;;
15982;SDS011;14442;50.196;8.096;2022-12-11T08:43:35;3.30;;;3.10;;
15982;SDS011;14442;50.196;8.096;2022-12-11T08:46:03;3.50;;;3.30;;
15982;SDS011;14442;50.196;8.096;2022-12-11T08:48:30;3.30;;;3.00;;
15982;SDS011;14442;50.196;8.096;2022-12-11T08:50:58;3.47;;;3.17;;
15982;SDS011;14442;50.196;8.096;2022-12-11T08:53:25;3.30;;;3.10;;
15982;SDS011;14442;50.196;8.096;2022-12-11T08:55:52;3.60;;;3.40;;
15982;SDS011;14442;50.196;8.096;2022-12-11T08:58:19;3.17;;;2.97;;
15982;SDS011;14442;50.196;8.096;2022-12-11T09:00:45;3.03;;;2.83;;
15982;SDS011;14442;50.196;8.096;2022-12-11T09:03:13;3.20;;;3.00;;
15982;SDS011;14442;50.196;8.096;2022-12-11T09:05:40;3.13;;;2.93;;
15982;SDS011;14442;50.196;8.096;2022-12-11T09:08:07;3.30;;;3.10;;
15982;SDS011;14442;50.196;8.096;2022-12-11T09:10:33;3.30;;;3.10;;
15982;SDS011;14442;50.196;8.096;2022-12-11T09:13:00;2.70;;;2.60;;
15982;SDS011;14442;50.196;8.096;2022-12-11T09:15:27;3.10;;;2.90;;
15982;SDS011;14442;50.196;8.096;2022-12-11T09:17:53;3.03;;;2.83;;
15982;SDS011;14442;50.196;8.096;2022-12-11T09:20:21;2.60;;;2.40;;
15982;SDS011;14442;50.196;8.096;2022-12-11T09:22:48;3.17;;;2.97;;
15982;SDS011;14442;50.196;8.096;2022-12-11T09:25:15;3.20;;;3.00;;
15982;SDS011;14442;50.196;8.096;2022-12-11T09:27:41;2.43;;;2.33;;
15982;SDS011;14442;50.196;8.096;2022-12-11T09:30:08;2.73;;;2.63;;
15982;SDS011;14442;50.196;8.096;2022-12-11T09:32:35;2.70;;;2.60;;
15982;SDS011;14442;50.196;8.096;2022-12-11T09:35:02;2.70;;;2.50;;
15982;SDS011;14442;50.196;8.096;2022-12-11T09:37:31;2.73;;;2.53;;
15982;SDS011;14442;50.196;8.096;2022-12-11T09:39:58;2.97;;;2.77;;
15982;SDS011;14442;50.196;8.096;2022-12-11T09:42:25;2.67;;;2.47;;
15982;SDS011;14442;50.196;8.096;2022-12-11T09:45:09;2.90;;;2.63;;
15982;SDS011;14442;50.196;8.096;2022-12-11T09:47:41;3.17;;;2.87;;
15982;SDS011;14442;50.196;8.096;2022-12-11T09:50:12;4.80;;;2.83;;
15982;SDS011;14442;50.196;8.096;2022-12-11T09:52:46;2.70;;;2.50;;
15982;SDS011;14442;50.196;8.096;2022-12-11T09:55:28;2.20;;;2.10;;
15982;SDS011;14442;50.196;8.096;2022-12-11T09:58:05;2.63;;;2.43;;
15982;SDS011;14442;50.196;8.096;2022-12-11T10:00:38;3.30;;;3.10;;
15982;SDS011;14442;50.196;8.096;2022-12-11T10:03:26;5.07;;;3.60;;
15982;SDS011;14442;50.196;8.096;2022-12-11T10:06:05;6.83;;;6.23;;
15982;SDS011;14442;50.196;8.096;2022-12-11T10:08:40;8.63;;;7.83;;
15982;SDS011;14442;50.196;8.096;2022-12-11T10:11:20;7.03;;;6.43;;
15982;SDS011;14442;50.196;8.096;2022-12-11T10:13:58;9.30;;;6.17;;
15982;SDS011;14442;50.196;8.096;2022-12-11T10:16:34;7.10;;;6.00;;
15982;SDS011;14442;50.196;8.096;2022-12-11T10:19:04;8.50;;;5.60;;
15982;SDS011;14442;50.196;8.096;2022-12-11T10:21:35;5.57;;;5.00;;
15982;SDS011;14442;50.196;8.096;2022-12-11T10:24:09;9.40;;;4.80;;
15982;SDS011;14442;50.196;8.096;2022-12-11T10:26:41;10.47;;;6.13;;
15982;SDS011;14442;50.196;8.096;2022-12-11T10:29:10;16.53;;;12.23;;
15982;SDS011;14442;50.196;8.096;2022-12-11T10:31:41;15.63;;;13.53;;
15982;SDS011;14442;50.196;8.096;2022-12-11T10:34:15;12.67;;;11.47;;
15982;SDS011;14442;50.196;8.096;2022-12-11T10:36:48;11.10;;;10.07;;
15982;SDS011;14442;50.196;8.096;2022-12-11T10:39:17;14.07;;;11.70;;
15982;SDS011;14442;50.196;8.096;2022-12-11T10:41:45;12.30;;;9.80;;
15982;SDS011;14442;50.196;8.096;2022-12-11T10:44:14;11.17;;;9.57;;
15982;SDS011;14442;50.196;8.096;2022-12-11T10:46:42;18.90;;;9.30;;
15982;SDS011;14442;50.196;8.096;2022-12-11T10:49:19;7.60;;;6.90;;
15982;SDS011;14442;50.196;8.096;2022-12-11T10:51:47;8.43;;;6.70;;
15982;SDS011;14442;50.196;8.096;2022-12-11T10:54:24;7.90;;;5.73;;
15982;SDS011;14442;50.196;8.096;2022-12-11T10:56:59;5.63;;;5.07;;
15982;SDS011;14442;50.196;8.096;2022-12-11T10:59:30;7.90;;;5.53;;
15982;SDS011;14442;50.196;8.096;2022-12-11T11:02:01;6.93;;;5.23;;
15982;SDS011;14442;50.196;8.096;2022-12-11T11:04:30;8.23;;;4.50;;
15982;SDS011;14442;50.196;8.096;2022-12-11T11:07:00;5.50;;;4.40;;
15982;SDS011;14442;50.196;8.096;2022-12-11T11:09:30;5.37;;;4.20;;
15982;SDS011;14442;50.196;8.096;2022-12-11T11:12:00;11.77;;;4.27;;
15982;SDS011;14442;50.196;8.096;2022-12-11T11:14:27;10.63;;;4.17;;
15982;SDS011;14442;50.196;8.096;2022-12-11T11:16:55;5.47;;;3.97;;
15982;SDS011;14442;50.196;8.096;2022-12-11T11:19:23;6.93;;;3.67;;
15982;SDS011;14442;50.196;8.096;2022-12-11T11:21:52;9.83;;;3.53;;
15982;SDS011;14442;50.196;8.096;2022-12-11T11:24:26;7.60;;;3.33;;
15982;SDS011;14442;50.196;8.096;2022-12-11T11:26:58;6.63;;;3.50;;
15982;SDS011;14442;50.196;8.096;2022-12-11T11:29:28;4.47;;;3.10;;
15982;SDS011;14442;50.196;8.096;2022-12-11T11:31:55;6.63;;;2.70;;
15982;SDS011;14442;50.196;8.096;2022-12-11T11:34:24;4.20;;;2.60;;
15982;SDS011;14442;50.196;8.096;2022-12-11T11:36:54;4.10;;;2.90;;
15982;SDS011;14442;50.196;8.096;2022-12-11T11:39:25;5.47;;;3.43;;
15982;SDS011;14442;50.196;8.096;2022-12-11T11:41:59;3.93;;;3.00;;
15982;SDS011;14442;50.196;8.096;2022-12-11T11:44:33;5.03;;;3.17;;
15982;SDS011;14442;50.196;8.096;2022-12-11T11:47:04;4.40;;;2.63;;
15982;SDS011;14442;50.196;8.096;2022-12-11T11:49:41;3.63;;;2.57;;
15982;SDS011;14442;50.196;8.096;2022-12-11T11:52:16;6.97;;;3.20;;
15982;SDS011;14442;50.196;8.096;2022-12-11T11:54:51;6.47;;;2.87;;
15982;SDS011;14442;50.196;8.096;2022-12-11T11:57:26;7.10;;;2.50;;
15982;SDS011;14442;50.196;8.096;2022-12-11T11:59:58;10.77;;;2.70;;
15982;SDS011;14442;50.196;8.096;2022-12-11T12:02:33;3.53;;;2.30;;
15982;SDS011;14442;50.196;8.096;2022-12-11T12:05:01;3.03;;;2.40;;
15982;SDS011;14442;50.196;8.096;2022-12-11T12:07:31;4.30;;;2.30;;
15982;SDS011;14442;50.196;8.096;2022-12-11T12:10:09;3.53;;;2.47;;
15982;SDS011;14442;50.196;8.096;2022-12-11T12:12:42;6.73;;;2.43;;
15982;SDS011;14442;50.196;8.096;2022-12-11T12:15:25;6.87;;;2.20;;
15982;SDS011;14442;50.196;8.096;2022-12-11T12:18:01;5.00;;;2.70;;
15982;SDS011;14442;50.196;8.096;2022-12-11T12:20:37;4.13;;;2.67;;
15982;SDS011;14442;50.196;8.096;2022-12-11T12:23:20;6.93;;;3.00;;
15982;SDS011;14442;50.196;8.096;2022-12-11T12:26:01;5.50;;;2.70;;
15982;SDS011;14442;50.196;8.096;2022-12-11T12:28:35;2.67;;;2.47;;
15982;SDS011;14442;50.196;8.096;2022-12-11T12:31:12;3.33;;;2.80;;
15982;SDS011;14442;50.196;8.096;2022-12-11T12:33:47;4.93;;;2.43;;
15982;SDS011;14442;50.196;8.096;2022-12-11T12:36:24;2.63;;;2.20;;
15982;SDS011;14442;50.196;8.096;2022-12-11T12:38:58;2.80;;;2.20;;
15982;SDS011;14442;50.196;8.096;2022-12-11T12:41:31;3.63;;;2.03;;
15982;SDS011;14442;50.196;8.096;2022-12-11T12:44:07;2.77;;;2.53;;
15982;SDS011;14442;50.196;8.096;2022-12-11T12:46:42;3.53;;;2.57;;
15982;SDS011;14442;50.196;8.096;2022-12-11T12:49:27;4.63;;;2.90;;
15982;SDS011;14442;50.196;8.096;2022-12-11T12:51:59;2.70;;;2.50;;
15982;SDS011;14442;50.196;8.096;2022-12-11T12:54:27;2.33;;;2.20;;
15982;SDS011;14442;50.196;8.096;2022-12-11T12:56:58;3.93;;;2.50;;
15982;SDS011;14442;50.196;8.096;2022-12-11T12:59:27;4.53;;;2.57;;
15982;SDS011;14442;50.196;8.096;2022-12-11T13:01:54;5.47;;;2.33;;
15982;SDS011;14442;50.196;8.096;2022-12-11T13:04:28;3.10;;;2.00;;
15982;SDS011;14442;50.196;8.096;2022-12-11T13:07:09;2.97;;;2.37;;
15982;SDS011;14442;50.196;8.096;2022-12-11T13:09:41;3.13;;;2.80;;
15982;SDS011;14442;50.196;8.096;2022-12-11T13:12:13;2.83;;;2.60;;
15982;SDS011;14442;50.196;8.096;2022-12-11T13:14:41;2.10;;;2.00;;
15982;SDS011;14442;50.196;8.096;2022-12-11T13:17:22;3.33;;;2.50;;
15982;SDS011;14442;50.196;8.096;2022-12-11T13:20:09;2.23;;;1.97;;
15982;SDS011;14442;50.196;8.096;2022-12-11T13:22:46;2.63;;;2.20;;
15982;SDS011;14442;50.196;8.096;2022-12-11T13:25:22;2.57;;;2.37;;
15982;SDS011;14442;50.196;8.096;2022-12-11T13:27:52;2.60;;;2.40;;
15982;SDS011;14442;50.196;8.096;2022-12-11T13:30:28;2.73;;;2.53;;
15982;SDS011;14442;50.196;8.096;2022-12-11T13:32:58;2.33;;;2.23;;
15982;SDS011;14442;50.196;8.096;2022-12-11T13:35:28;2.50;;;2.30;;
15982;SDS011;14442;50.196;8.096;2022-12-11T13:37:57;3.17;;;2.30;;
15982;SDS011;14442;50.196;8.096;2022-12-11T13:40:32;2.87;;;2.60;;
15982;SDS011;14442;50.196;8.096;2022-12-11T13:43:04;2.70;;;2.50;;
15982;SDS011;14442;50.196;8.096;2022-12-11T13:45:42;2.77;;;2.60;;
15982;SDS011;14442;50.196;8.096;2022-12-11T13:48:15;3.00;;;2.53;;
15982;SDS011;14442;50.196;8.096;2022-12-11T13:50:44;2.60;;;2.40;;
15982;SDS011;14442;50.196;8.096;2022-12-11T13:53:13;2.60;;;2.40;;
15982;SDS011;14442;50.196;8.096;2022-12-11T13:55:40;2.30;;;2.10;;
15982;SDS011;14442;50.196;8.096;2022-12-11T13:58:15;2.60;;;2.40;;
15982;SDS011;14442;50.196;8.096;2022-12-11T14:00:50;2.73;;;2.50;;
15982;SDS011;14442;50.196;8.096;2022-12-11T14:03:21;2.97;;;2.83;;
15982;SDS011;14442;50.196;8.096;2022-12-11T14:05:48;3.07;;;2.77;;
15982;SDS011;14442;50.196;8.096;2022-12-11T14:08:16;2.80;;;2.57;;
15982;SDS011;14442;50.196;8.096;2022-12-11T14:10:49;2.90;;;2.70;;
15982;SDS011;14442;50.196;8.096;2022-12-11T14:13:20;2.50;;;2.40;;
15982;SDS011;14442;50.196;8.096;2022-12-11T14:15:48;2.37;;;2.17;;
15982;SDS011;14442;50.196;8.096;2022-12-11T14:18:17;2.50;;;2.30;;
15982;SDS011;14442;50.196;8.096;2022-12-11T14:20:51;2.30;;;2.20;;
15982;SDS011;14442;50.196;8.096;2022-12-11T14:23:20;8.87;;;2.87;;
15982;SDS011;14442;50.196;8.096;2022-12-11T14:25:51;2.87;;;2.50;;
15982;SDS011;14442;50.196;8.096;2022-12-11T14:28:19;2.90;;;2.70;;
15982;SDS011;14442;50.196;8.096;2022-12-11T14:30:51;2.73;;;2.53;;
15982;SDS011;14442;50.196;8.096;2022-12-11T14:33:23;2.33;;;2.13;;
15982;SDS011;14442;50.196;8.096;2022-12-11T14:35:53;2.57;;;2.43;;
15982;SDS011;14442;50.196;8.096;2022-12-11T14:38:21;3.23;;;2.43;;
15982;SDS011;14442;50.196;8.096;2022-12-11T14:40:52;2.50;;;2.30;;
15982;SDS011;14442;50.196;8.096;2022-12-11T14:43:25;2.50;;;2.30;;
15982;SDS011;14442;50.196;8.096;2022-12-11T14:45:55;2.70;;;2.50;;
15982;SDS011;14442;50.196;8.096;2022-12-11T14:48:26;2.40;;;2.20;;
15982;SDS011;14442;50.196;8.096;2022-12-11T14:50:56;2.43;;;2.27;;
15982;SDS011;14442;50.196;8.096;2022-12-11T14:53:27;2.43;;;2.30;;
15982;SDS011;14442;50.196;8.096;2022-12-11T14:55:58;2.33;;;2.17;;
15982;SDS011;14442;50.196;8.096;2022-12-11T14:58:29;1.93;;;1.83;;
15982;SDS011;14442;50.196;8.096;2022-12-11T15:00:58;2.10;;;2.00;;
15982;SDS011;14442;50.196;8.096;2022-12-11T15:03:30;2.87;;;2.53;;
15982;SDS011;14442;50.196;8.096;2022-12-11T15:05:58;2.80;;;2.60;;
15982;SDS011;14442;50.196;8.096;2022-12-11T15:08:26;2.77;;;2.57;;
15982;SDS011;14442;50.196;8.096;2022-12-11T15:10:58;2.60;;;2.50;;
15982;SDS011;14442;50.196;8.096;2022-12-11T15:13:32;2.90;;;2.70;;
15982;SDS011;14442;50.196;8.096;2022-12-11T15:16:02;3.90;;;2.97;;
15982;SDS011;14442;50.196;8.096;2022-12-11T15:18:31;4.97;;;2.40;;
15982;SDS011;14442;50.196;8.096;2022-12-11T15:21:01;4.60;;;2.73;;
15982;SDS011;14442;50.196;8.096;2022-12-11T15:23:30;3.83;;;2.30;;
15982;SDS011;14442;50.196;8.096;2022-12-11T15:26:00;5.73;;;2.53;;
15982;SDS011;14442;50.196;8.096;2022-12-11T15:28:27;4.00;;;2.37;;
15982;SDS011;14442;50.196;8.096;2022-12-11T15:30:59;5.97;;;2.63;;
15982;SDS011;14442;50.196;8.096;2022-12-11T15:33:27;4.10;;;2.20;;
15982;SDS011;14442;50.196;8.096;2022-12-11T15:35:56;4.17;;;2.33;;
15982;SDS011;14442;50.196;8.096;2022-12-11T15:38:28;3.67;;;2.60;;
15982;SDS011;14442;50.196;8.096;2022-12-11T15:41:00;2.53;;;2.30;;
15982;SDS011;14442;50.196;8.096;2022-12-11T15:43:27;3.67;;;2.20;;
15982;SDS011;14442;50.196;8.096;2022-12-11T15:45:55;6.60;;;2.80;;
15982;SDS011;14442;50.196;8.096;2022-12-11T15:48:23;7.60;;;2.33;;
15982;SDS011;14442;50.196;8.096;2022-12-11T15:50:50;3.93;;;2.47;;
15982;SDS011;14442;50.196;8.096;2022-12-11T15:53:17;3.00;;;2.80;;
15982;SDS011;14442;50.196;8.096;2022-12-11T15:55:44;5.10;;;2.20;;
15982;SDS011;14442;50.196;8.096;2022-12-11T15:58:12;2.70;;;2.50;;
15982;SDS011;14442;50.196;8.096;2022-12-11T16:00:42;4.20;;;3.17;;
15982;SDS011;14442;50.196;8.096;2022-12-11T16:03:10;2.63;;;2.43;;
15982;SDS011;14442;50.196;8.096;2022-12-11T16:05:39;2.63;;;2.13;;
15982;SDS011;14442;50.196;8.096;2022-12-11T16:08:07;2.77;;;2.57;;
15982;SDS011;14442;50.196;8.096;2022-12-11T16:10:39;3.63;;;3.17;;
15982;SDS011;14442;50.196;8.096;2022-12-11T16:13:06;3.23;;;2.10;;
15982;SDS011;14442;50.196;8.096;2022-12-11T16:15:32;3.87;;;2.37;;